<?xml version="1.0" encoding="UTF-8" standalone="no" ?>
<gpx xmlns="http://www.topografix.com/GPX/1/1" xmlns:xsi="http://www.w3.org/2001/XMLSchema-instance" xsi:schemaLocation="http://www.topografix.com/GPX/1/1 http://www.topografix.com/GPX/1/1/gpx.xsd" version="1.1" creator="VisuGPX - https://www.visugpx.com">
  <metadata>
    <name>Course Nature GOUZENS 12km</name>
  </metadata>
  <trk>
    <name><![CDATA[9650814-Course Nature Gouzens 12km]]></name>
    <trkseg>
      <trkpt lat="43.18616" lon="1.18799">
        <ele>297</ele>
        <time>2019-05-19T15:19:33Z</time>
      </trkpt>
      <trkpt lat="43.18604" lon="1.18802">
        <ele>299</ele>
        <time>2019-05-19T15:19:39Z</time>
      </trkpt>
      <trkpt lat="43.18599" lon="1.188">
        <ele>299</ele>
        <time>2019-05-19T15:19:42Z</time>
      </trkpt>
      <trkpt lat="43.18588" lon="1.18802">
        <ele>301</ele>
        <time>2019-05-19T15:19:47Z</time>
      </trkpt>
      <trkpt lat="43.18562" lon="1.18818">
        <ele>302</ele>
        <time>2019-05-19T15:20:02Z</time>
      </trkpt>
      <trkpt lat="43.18522" lon="1.18849">
        <ele>303</ele>
        <time>2019-05-19T15:20:25Z</time>
      </trkpt>
      <trkpt lat="43.18502" lon="1.18871">
        <ele>303</ele>
        <time>2019-05-19T15:20:37Z</time>
      </trkpt>
      <trkpt lat="43.18476" lon="1.18925">
        <ele>300</ele>
        <time>2019-05-19T15:21:01Z</time>
      </trkpt>
      <trkpt lat="43.18466" lon="1.18932">
        <ele>299</ele>
        <time>2019-05-19T15:21:07Z</time>
      </trkpt>
      <trkpt lat="43.18459" lon="1.1893">
        <ele>299</ele>
        <time>2019-05-19T15:21:10Z</time>
      </trkpt>
      <trkpt lat="43.18418" lon="1.18896">
        <ele>301</ele>
        <time>2019-05-19T15:21:34Z</time>
      </trkpt>
      <trkpt lat="43.1839" lon="1.18862">
        <ele>303</ele>
        <time>2019-05-19T15:21:53Z</time>
      </trkpt>
      <trkpt lat="43.18369" lon="1.18829">
        <ele>306</ele>
        <time>2019-05-19T15:22:09Z</time>
      </trkpt>
      <trkpt lat="43.18348" lon="1.18808">
        <ele>308</ele>
        <time>2019-05-19T15:22:22Z</time>
      </trkpt>
      <trkpt lat="43.18216" lon="1.18756">
        <ele>312</ele>
        <time>2019-05-19T15:23:31Z</time>
      </trkpt>
      <trkpt lat="43.18182" lon="1.18738">
        <ele>313</ele>
        <time>2019-05-19T15:23:49Z</time>
      </trkpt>
      <trkpt lat="43.18116" lon="1.18718">
        <ele>315</ele>
        <time>2019-05-19T15:24:23Z</time>
      </trkpt>
      <trkpt lat="43.1811" lon="1.18712">
        <ele>315</ele>
        <time>2019-05-19T15:24:26Z</time>
      </trkpt>
      <trkpt lat="43.18085" lon="1.18703">
        <ele>316</ele>
        <time>2019-05-19T15:24:39Z</time>
      </trkpt>
      <trkpt lat="43.18068" lon="1.1869">
        <ele>317</ele>
        <time>2019-05-19T15:24:49Z</time>
      </trkpt>
      <trkpt lat="43.18055" lon="1.18676">
        <ele>318</ele>
        <time>2019-05-19T15:24:57Z</time>
      </trkpt>
      <trkpt lat="43.1805" lon="1.18661">
        <ele>319</ele>
        <time>2019-05-19T15:25:03Z</time>
      </trkpt>
      <trkpt lat="43.18056" lon="1.18634">
        <ele>322</ele>
        <time>2019-05-19T15:25:14Z</time>
      </trkpt>
      <trkpt lat="43.18066" lon="1.18609">
        <ele>324</ele>
        <time>2019-05-19T15:25:24Z</time>
      </trkpt>
      <trkpt lat="43.18078" lon="1.18567">
        <ele>328</ele>
        <time>2019-05-19T15:25:40Z</time>
      </trkpt>
      <trkpt lat="43.18091" lon="1.18541">
        <ele>330</ele>
        <time>2019-05-19T15:25:52Z</time>
      </trkpt>
      <trkpt lat="43.18107" lon="1.18498">
        <ele>334</ele>
        <time>2019-05-19T15:26:10Z</time>
      </trkpt>
      <trkpt lat="43.18112" lon="1.18476">
        <ele>336</ele>
        <time>2019-05-19T15:26:18Z</time>
      </trkpt>
      <trkpt lat="43.18105" lon="1.18457">
        <ele>338</ele>
        <time>2019-05-19T15:26:26Z</time>
      </trkpt>
      <trkpt lat="43.18086" lon="1.18427">
        <ele>341</ele>
        <time>2019-05-19T15:26:40Z</time>
      </trkpt>
      <trkpt lat="43.18077" lon="1.1842">
        <ele>341</ele>
        <time>2019-05-19T15:26:45Z</time>
      </trkpt>
      <trkpt lat="43.18073" lon="1.1842">
        <ele>341</ele>
        <time>2019-05-19T15:26:47Z</time>
      </trkpt>
      <trkpt lat="43.18046" lon="1.18399">
        <ele>341</ele>
        <time>2019-05-19T15:27:03Z</time>
      </trkpt>
      <trkpt lat="43.18009" lon="1.18378">
        <ele>340</ele>
        <time>2019-05-19T15:27:23Z</time>
      </trkpt>
      <trkpt lat="43.17982" lon="1.18356">
        <ele>341</ele>
        <time>2019-05-19T15:27:39Z</time>
      </trkpt>
      <trkpt lat="43.1797" lon="1.18349">
        <ele>342</ele>
        <time>2019-05-19T15:27:45Z</time>
      </trkpt>
      <trkpt lat="43.17951" lon="1.18328">
        <ele>342</ele>
        <time>2019-05-19T15:27:57Z</time>
      </trkpt>
      <trkpt lat="43.17922" lon="1.18323">
        <ele>342</ele>
        <time>2019-05-19T15:28:12Z</time>
      </trkpt>
      <trkpt lat="43.17905" lon="1.18327">
        <ele>343</ele>
        <time>2019-05-19T15:28:21Z</time>
      </trkpt>
      <trkpt lat="43.17858" lon="1.18346">
        <ele>345</ele>
        <time>2019-05-19T15:28:45Z</time>
      </trkpt>
      <trkpt lat="43.17847" lon="1.18348">
        <ele>346</ele>
        <time>2019-05-19T15:28:51Z</time>
      </trkpt>
      <trkpt lat="43.1783" lon="1.18345">
        <ele>346</ele>
        <time>2019-05-19T15:28:59Z</time>
      </trkpt>
      <trkpt lat="43.17812" lon="1.18346">
        <ele>346</ele>
        <time>2019-05-19T15:29:08Z</time>
      </trkpt>
      <trkpt lat="43.17798" lon="1.18344">
        <ele>346</ele>
        <time>2019-05-19T15:29:15Z</time>
      </trkpt>
      <trkpt lat="43.17783" lon="1.18338">
        <ele>346</ele>
        <time>2019-05-19T15:29:23Z</time>
      </trkpt>
      <trkpt lat="43.17734" lon="1.18301">
        <ele>346</ele>
        <time>2019-05-19T15:29:51Z</time>
      </trkpt>
      <trkpt lat="43.17713" lon="1.18291">
        <ele>347</ele>
        <time>2019-05-19T15:30:02Z</time>
      </trkpt>
      <trkpt lat="43.17652" lon="1.18292">
        <ele>349</ele>
        <time>2019-05-19T15:30:33Z</time>
      </trkpt>
      <trkpt lat="43.17612" lon="1.18283">
        <ele>349</ele>
        <time>2019-05-19T15:30:53Z</time>
      </trkpt>
      <trkpt lat="43.17601" lon="1.18277">
        <ele>349</ele>
        <time>2019-05-19T15:30:59Z</time>
      </trkpt>
      <trkpt lat="43.17577" lon="1.18256">
        <ele>350</ele>
        <time>2019-05-19T15:31:13Z</time>
      </trkpt>
      <trkpt lat="43.17543" lon="1.18225">
        <ele>349</ele>
        <time>2019-05-19T15:31:34Z</time>
      </trkpt>
      <trkpt lat="43.1753" lon="1.1821">
        <ele>349</ele>
        <time>2019-05-19T15:31:42Z</time>
      </trkpt>
      <trkpt lat="43.17488" lon="1.18173">
        <ele>349</ele>
        <time>2019-05-19T15:32:07Z</time>
      </trkpt>
      <trkpt lat="43.17484" lon="1.18164">
        <ele>349</ele>
        <time>2019-05-19T15:32:11Z</time>
      </trkpt>
      <trkpt lat="43.17482" lon="1.1814">
        <ele>348</ele>
        <time>2019-05-19T15:32:20Z</time>
      </trkpt>
      <trkpt lat="43.17477" lon="1.18126">
        <ele>347</ele>
        <time>2019-05-19T15:32:26Z</time>
      </trkpt>
      <trkpt lat="43.17466" lon="1.18073">
        <ele>343</ele>
        <time>2019-05-19T15:32:46Z</time>
      </trkpt>
      <trkpt lat="43.17458" lon="1.18001">
        <ele>333</ele>
        <time>2019-05-19T15:33:12Z</time>
      </trkpt>
      <trkpt lat="43.17459" lon="1.17988">
        <ele>331</ele>
        <time>2019-05-19T15:33:17Z</time>
      </trkpt>
      <trkpt lat="43.17475" lon="1.17941">
        <ele>323</ele>
        <time>2019-05-19T15:33:36Z</time>
      </trkpt>
      <trkpt lat="43.17501" lon="1.17895">
        <ele>317</ele>
        <time>2019-05-19T15:33:57Z</time>
      </trkpt>
      <trkpt lat="43.17505" lon="1.17882">
        <ele>316</ele>
        <time>2019-05-19T15:34:02Z</time>
      </trkpt>
      <trkpt lat="43.17505" lon="1.17867">
        <ele>314</ele>
        <time>2019-05-19T15:34:08Z</time>
      </trkpt>
      <trkpt lat="43.17496" lon="1.17818">
        <ele>309</ele>
        <time>2019-05-19T15:34:26Z</time>
      </trkpt>
      <trkpt lat="43.17476" lon="1.1775">
        <ele>307</ele>
        <time>2019-05-19T15:34:53Z</time>
      </trkpt>
      <trkpt lat="43.1745" lon="1.1771">
        <ele>309</ele>
        <time>2019-05-19T15:35:13Z</time>
      </trkpt>
      <trkpt lat="43.17408" lon="1.17619">
        <ele>315</ele>
        <time>2019-05-19T15:35:52Z</time>
      </trkpt>
      <trkpt lat="43.17404" lon="1.17604">
        <ele>317</ele>
        <time>2019-05-19T15:35:58Z</time>
      </trkpt>
      <trkpt lat="43.17353" lon="1.17482">
        <ele>323</ele>
        <time>2019-05-19T15:36:49Z</time>
      </trkpt>
      <trkpt lat="43.17349" lon="1.17464">
        <ele>324</ele>
        <time>2019-05-19T15:36:56Z</time>
      </trkpt>
      <trkpt lat="43.17351" lon="1.17457">
        <ele>324</ele>
        <time>2019-05-19T15:36:59Z</time>
      </trkpt>
      <trkpt lat="43.1736" lon="1.17444">
        <ele>324</ele>
        <time>2019-05-19T15:37:05Z</time>
      </trkpt>
      <trkpt lat="43.17413" lon="1.17389">
        <ele>325</ele>
        <time>2019-05-19T15:37:38Z</time>
      </trkpt>
      <trkpt lat="43.17477" lon="1.17305">
        <ele>327</ele>
        <time>2019-05-19T15:38:23Z</time>
      </trkpt>
      <trkpt lat="43.17514" lon="1.17206">
        <ele>331</ele>
        <time>2019-05-19T15:39:03Z</time>
      </trkpt>
      <trkpt lat="43.17531" lon="1.17168">
        <ele>332</ele>
        <time>2019-05-19T15:39:20Z</time>
      </trkpt>
      <trkpt lat="43.17535" lon="1.17155">
        <ele>333</ele>
        <time>2019-05-19T15:39:25Z</time>
      </trkpt>
      <trkpt lat="43.17534" lon="1.1715">
        <ele>334</ele>
        <time>2019-05-19T15:39:27Z</time>
      </trkpt>
      <trkpt lat="43.175" lon="1.17106">
        <ele>338</ele>
        <time>2019-05-19T15:39:50Z</time>
      </trkpt>
      <trkpt lat="43.17464" lon="1.1707">
        <ele>344</ele>
        <time>2019-05-19T15:40:12Z</time>
      </trkpt>
      <trkpt lat="43.1745" lon="1.17047">
        <ele>349</ele>
        <time>2019-05-19T15:40:23Z</time>
      </trkpt>
      <trkpt lat="43.17415" lon="1.17011">
        <ele>358</ele>
        <time>2019-05-19T15:40:45Z</time>
      </trkpt>
      <trkpt lat="43.17395" lon="1.16984">
        <ele>362</ele>
        <time>2019-05-19T15:40:59Z</time>
      </trkpt>
      <trkpt lat="43.17388" lon="1.16967">
        <ele>365</ele>
        <time>2019-05-19T15:41:06Z</time>
      </trkpt>
      <trkpt lat="43.17385" lon="1.16953">
        <ele>367</ele>
        <time>2019-05-19T15:41:12Z</time>
      </trkpt>
      <trkpt lat="43.17386" lon="1.16943">
        <ele>369</ele>
        <time>2019-05-19T15:41:15Z</time>
      </trkpt>
      <trkpt lat="43.17377" lon="1.16915">
        <ele>373</ele>
        <time>2019-05-19T15:41:27Z</time>
      </trkpt>
      <trkpt lat="43.17369" lon="1.16907">
        <ele>375</ele>
        <time>2019-05-19T15:41:32Z</time>
      </trkpt>
      <trkpt lat="43.17331" lon="1.16896">
        <ele>380</ele>
        <time>2019-05-19T15:41:51Z</time>
      </trkpt>
      <trkpt lat="43.17321" lon="1.16889">
        <ele>380</ele>
        <time>2019-05-19T15:41:57Z</time>
      </trkpt>
      <trkpt lat="43.17302" lon="1.16868">
        <ele>382</ele>
        <time>2019-05-19T15:42:09Z</time>
      </trkpt>
      <trkpt lat="43.17267" lon="1.16838">
        <ele>384</ele>
        <time>2019-05-19T15:42:29Z</time>
      </trkpt>
      <trkpt lat="43.17236" lon="1.16797">
        <ele>384</ele>
        <time>2019-05-19T15:42:51Z</time>
      </trkpt>
      <trkpt lat="43.17227" lon="1.16783">
        <ele>384</ele>
        <time>2019-05-19T15:42:58Z</time>
      </trkpt>
      <trkpt lat="43.17222" lon="1.16769">
        <ele>384</ele>
        <time>2019-05-19T15:43:04Z</time>
      </trkpt>
      <trkpt lat="43.17194" lon="1.16743">
        <ele>386</ele>
        <time>2019-05-19T15:43:20Z</time>
      </trkpt>
      <trkpt lat="43.17181" lon="1.1674">
        <ele>386</ele>
        <time>2019-05-19T15:43:27Z</time>
      </trkpt>
      <trkpt lat="43.17161" lon="1.16745">
        <ele>388</ele>
        <time>2019-05-19T15:43:37Z</time>
      </trkpt>
      <trkpt lat="43.17153" lon="1.16742">
        <ele>389</ele>
        <time>2019-05-19T15:43:41Z</time>
      </trkpt>
      <trkpt lat="43.17147" lon="1.16735">
        <ele>389</ele>
        <time>2019-05-19T15:43:45Z</time>
      </trkpt>
      <trkpt lat="43.17125" lon="1.1673">
        <ele>392</ele>
        <time>2019-05-19T15:43:56Z</time>
      </trkpt>
      <trkpt lat="43.17097" lon="1.16739">
        <ele>396</ele>
        <time>2019-05-19T15:44:11Z</time>
      </trkpt>
      <trkpt lat="43.17065" lon="1.16755">
        <ele>398</ele>
        <time>2019-05-19T15:44:28Z</time>
      </trkpt>
      <trkpt lat="43.17023" lon="1.16764">
        <ele>402</ele>
        <time>2019-05-19T15:44:49Z</time>
      </trkpt>
      <trkpt lat="43.16988" lon="1.16762">
        <ele>404</ele>
        <time>2019-05-19T15:45:07Z</time>
      </trkpt>
      <trkpt lat="43.16948" lon="1.16752">
        <ele>405</ele>
        <time>2019-05-19T15:45:27Z</time>
      </trkpt>
      <trkpt lat="43.16918" lon="1.16748">
        <ele>405</ele>
        <time>2019-05-19T15:45:42Z</time>
      </trkpt>
      <trkpt lat="43.16901" lon="1.16757">
        <ele>404</ele>
        <time>2019-05-19T15:45:51Z</time>
      </trkpt>
      <trkpt lat="43.16834" lon="1.16813">
        <ele>408</ele>
        <time>2019-05-19T15:46:31Z</time>
      </trkpt>
      <trkpt lat="43.16795" lon="1.16853">
        <ele>409</ele>
        <time>2019-05-19T15:46:55Z</time>
      </trkpt>
      <trkpt lat="43.16761" lon="1.16877">
        <ele>408</ele>
        <time>2019-05-19T15:47:14Z</time>
      </trkpt>
      <trkpt lat="43.16704" lon="1.16905">
        <ele>411</ele>
        <time>2019-05-19T15:47:44Z</time>
      </trkpt>
      <trkpt lat="43.1668" lon="1.16915">
        <ele>414</ele>
        <time>2019-05-19T15:47:57Z</time>
      </trkpt>
      <trkpt lat="43.16668" lon="1.16917">
        <ele>415</ele>
        <time>2019-05-19T15:48:03Z</time>
      </trkpt>
      <trkpt lat="43.16649" lon="1.16931">
        <ele>414</ele>
        <time>2019-05-19T15:48:14Z</time>
      </trkpt>
      <trkpt lat="43.16557" lon="1.16961">
        <ele>414</ele>
        <time>2019-05-19T15:49:01Z</time>
      </trkpt>
      <trkpt lat="43.16495" lon="1.16994">
        <ele>414</ele>
        <time>2019-05-19T15:49:34Z</time>
      </trkpt>
      <trkpt lat="43.1641" lon="1.17025">
        <ele>412</ele>
        <time>2019-05-19T15:50:18Z</time>
      </trkpt>
      <trkpt lat="43.16399" lon="1.17034">
        <ele>412</ele>
        <time>2019-05-19T15:50:25Z</time>
      </trkpt>
      <trkpt lat="43.16361" lon="1.1708">
        <ele>414</ele>
        <time>2019-05-19T15:50:50Z</time>
      </trkpt>
      <trkpt lat="43.16311" lon="1.17133">
        <ele>414</ele>
        <time>2019-05-19T15:51:22Z</time>
      </trkpt>
      <trkpt lat="43.16261" lon="1.17181">
        <ele>422</ele>
        <time>2019-05-19T15:51:52Z</time>
      </trkpt>
      <trkpt lat="43.16235" lon="1.17201">
        <ele>424</ele>
        <time>2019-05-19T15:52:07Z</time>
      </trkpt>
      <trkpt lat="43.16234" lon="1.17205">
        <ele>424</ele>
        <time>2019-05-19T15:52:09Z</time>
      </trkpt>
      <trkpt lat="43.16248" lon="1.17281">
        <ele>423</ele>
        <time>2019-05-19T15:52:37Z</time>
      </trkpt>
      <trkpt lat="43.16251" lon="1.17318">
        <ele>423</ele>
        <time>2019-05-19T15:52:51Z</time>
      </trkpt>
      <trkpt lat="43.1627" lon="1.17376">
        <ele>420</ele>
        <time>2019-05-19T15:53:14Z</time>
      </trkpt>
      <trkpt lat="43.16278" lon="1.17388">
        <ele>419</ele>
        <time>2019-05-19T15:53:20Z</time>
      </trkpt>
      <trkpt lat="43.16283" lon="1.17401">
        <ele>419</ele>
        <time>2019-05-19T15:53:25Z</time>
      </trkpt>
      <trkpt lat="43.16284" lon="1.17418">
        <ele>419</ele>
        <time>2019-05-19T15:53:32Z</time>
      </trkpt>
      <trkpt lat="43.16265" lon="1.17472">
        <ele>413</ele>
        <time>2019-05-19T15:53:54Z</time>
      </trkpt>
      <trkpt lat="43.16246" lon="1.17514">
        <ele>407</ele>
        <time>2019-05-19T15:54:12Z</time>
      </trkpt>
      <trkpt lat="43.16234" lon="1.17555">
        <ele>398</ele>
        <time>2019-05-19T15:54:28Z</time>
      </trkpt>
      <trkpt lat="43.16234" lon="1.17564">
        <ele>397</ele>
        <time>2019-05-19T15:54:31Z</time>
      </trkpt>
      <trkpt lat="43.16239" lon="1.17574">
        <ele>395</ele>
        <time>2019-05-19T15:54:35Z</time>
      </trkpt>
      <trkpt lat="43.16252" lon="1.17569">
        <ele>398</ele>
        <time>2019-05-19T15:54:42Z</time>
      </trkpt>
      <trkpt lat="43.16269" lon="1.1758">
        <ele>395</ele>
        <time>2019-05-19T15:54:52Z</time>
      </trkpt>
      <trkpt lat="43.16285" lon="1.17603">
        <ele>393</ele>
        <time>2019-05-19T15:55:03Z</time>
      </trkpt>
      <trkpt lat="43.16299" lon="1.17635">
        <ele>391</ele>
        <time>2019-05-19T15:55:17Z</time>
      </trkpt>
      <trkpt lat="43.16304" lon="1.17652">
        <ele>390</ele>
        <time>2019-05-19T15:55:24Z</time>
      </trkpt>
      <trkpt lat="43.16306" lon="1.17679">
        <ele>388</ele>
        <time>2019-05-19T15:55:33Z</time>
      </trkpt>
      <trkpt lat="43.16311" lon="1.17698">
        <ele>388</ele>
        <time>2019-05-19T15:55:41Z</time>
      </trkpt>
      <trkpt lat="43.16308" lon="1.17733">
        <ele>386</ele>
        <time>2019-05-19T15:55:54Z</time>
      </trkpt>
      <trkpt lat="43.16317" lon="1.1776">
        <ele>385</ele>
        <time>2019-05-19T15:56:05Z</time>
      </trkpt>
      <trkpt lat="43.16317" lon="1.17794">
        <ele>380</ele>
        <time>2019-05-19T15:56:17Z</time>
      </trkpt>
      <trkpt lat="43.16321" lon="1.17804">
        <ele>379</ele>
        <time>2019-05-19T15:56:21Z</time>
      </trkpt>
      <trkpt lat="43.16324" lon="1.17804">
        <ele>380</ele>
        <time>2019-05-19T15:56:23Z</time>
      </trkpt>
      <trkpt lat="43.16337" lon="1.17784">
        <ele>382</ele>
        <time>2019-05-19T15:56:32Z</time>
      </trkpt>
      <trkpt lat="43.16363" lon="1.17759">
        <ele>380</ele>
        <time>2019-05-19T15:56:48Z</time>
      </trkpt>
      <trkpt lat="43.16373" lon="1.17754">
        <ele>379</ele>
        <time>2019-05-19T15:56:54Z</time>
      </trkpt>
      <trkpt lat="43.16383" lon="1.17756">
        <ele>377</ele>
        <time>2019-05-19T15:56:59Z</time>
      </trkpt>
      <trkpt lat="43.16389" lon="1.17767">
        <ele>374</ele>
        <time>2019-05-19T15:57:04Z</time>
      </trkpt>
      <trkpt lat="43.16397" lon="1.17788">
        <ele>371</ele>
        <time>2019-05-19T15:57:12Z</time>
      </trkpt>
      <trkpt lat="43.16399" lon="1.17809">
        <ele>368</ele>
        <time>2019-05-19T15:57:20Z</time>
      </trkpt>
      <trkpt lat="43.16394" lon="1.17824">
        <ele>367</ele>
        <time>2019-05-19T15:57:26Z</time>
      </trkpt>
      <trkpt lat="43.16395" lon="1.17836">
        <ele>366</ele>
        <time>2019-05-19T15:57:30Z</time>
      </trkpt>
      <trkpt lat="43.16386" lon="1.17882">
        <ele>361</ele>
        <time>2019-05-19T15:57:48Z</time>
      </trkpt>
      <trkpt lat="43.16374" lon="1.17906">
        <ele>358</ele>
        <time>2019-05-19T15:57:58Z</time>
      </trkpt>
      <trkpt lat="43.16385" lon="1.17912">
        <ele>356</ele>
        <time>2019-05-19T15:58:04Z</time>
      </trkpt>
      <trkpt lat="43.16392" lon="1.17921">
        <ele>355</ele>
        <time>2019-05-19T15:58:09Z</time>
      </trkpt>
      <trkpt lat="43.16402" lon="1.17923">
        <ele>355</ele>
        <time>2019-05-19T15:58:14Z</time>
      </trkpt>
      <trkpt lat="43.16383" lon="1.17936">
        <ele>357</ele>
        <time>2019-05-19T15:58:25Z</time>
      </trkpt>
      <trkpt lat="43.16377" lon="1.17947">
        <ele>358</ele>
        <time>2019-05-19T15:58:30Z</time>
      </trkpt>
      <trkpt lat="43.16374" lon="1.17961">
        <ele>359</ele>
        <time>2019-05-19T15:58:35Z</time>
      </trkpt>
      <trkpt lat="43.16376" lon="1.17972">
        <ele>360</ele>
        <time>2019-05-19T15:58:39Z</time>
      </trkpt>
      <trkpt lat="43.16367" lon="1.17987">
        <ele>361</ele>
        <time>2019-05-19T15:58:46Z</time>
      </trkpt>
      <trkpt lat="43.16349" lon="1.18006">
        <ele>361</ele>
        <time>2019-05-19T15:58:58Z</time>
      </trkpt>
      <trkpt lat="43.16342" lon="1.18006">
        <ele>361</ele>
        <time>2019-05-19T15:59:01Z</time>
      </trkpt>
      <trkpt lat="43.16342" lon="1.18002">
        <ele>361</ele>
        <time>2019-05-19T15:59:03Z</time>
      </trkpt>
      <trkpt lat="43.16338" lon="1.18005">
        <ele>361</ele>
        <time>2019-05-19T15:59:05Z</time>
      </trkpt>
      <trkpt lat="43.16323" lon="1.18022">
        <ele>363</ele>
        <time>2019-05-19T15:59:15Z</time>
      </trkpt>
      <trkpt lat="43.1632" lon="1.1804">
        <ele>365</ele>
        <time>2019-05-19T15:59:22Z</time>
      </trkpt>
      <trkpt lat="43.1631" lon="1.18052">
        <ele>366</ele>
        <time>2019-05-19T15:59:28Z</time>
      </trkpt>
      <trkpt lat="43.16306" lon="1.18059">
        <ele>367</ele>
        <time>2019-05-19T15:59:31Z</time>
      </trkpt>
      <trkpt lat="43.16306" lon="1.18064">
        <ele>367</ele>
        <time>2019-05-19T15:59:33Z</time>
      </trkpt>
      <trkpt lat="43.16282" lon="1.18081">
        <ele>367</ele>
        <time>2019-05-19T15:59:47Z</time>
      </trkpt>
      <trkpt lat="43.16266" lon="1.18083">
        <ele>366</ele>
        <time>2019-05-19T15:59:55Z</time>
      </trkpt>
      <trkpt lat="43.16259" lon="1.18081">
        <ele>365</ele>
        <time>2019-05-19T15:59:58Z</time>
      </trkpt>
      <trkpt lat="43.16257" lon="1.18075">
        <ele>364</ele>
        <time>2019-05-19T16:00:01Z</time>
      </trkpt>
      <trkpt lat="43.16261" lon="1.18069">
        <ele>364</ele>
        <time>2019-05-19T16:00:04Z</time>
      </trkpt>
      <trkpt lat="43.16263" lon="1.18068">
        <ele>364</ele>
        <time>2019-05-19T16:00:05Z</time>
      </trkpt>
      <trkpt lat="43.16264" lon="1.1807">
        <ele>364</ele>
        <time>2019-05-19T16:00:06Z</time>
      </trkpt>
      <trkpt lat="43.16262" lon="1.18073">
        <ele>364</ele>
        <time>2019-05-19T16:00:07Z</time>
      </trkpt>
      <trkpt lat="43.16268" lon="1.18069">
        <ele>365</ele>
        <time>2019-05-19T16:00:11Z</time>
      </trkpt>
      <trkpt lat="43.16244" lon="1.18094">
        <ele>365</ele>
        <time>2019-05-19T16:00:26Z</time>
      </trkpt>
      <trkpt lat="43.16238" lon="1.1811">
        <ele>367</ele>
        <time>2019-05-19T16:00:32Z</time>
      </trkpt>
      <trkpt lat="43.16237" lon="1.18122">
        <ele>368</ele>
        <time>2019-05-19T16:00:37Z</time>
      </trkpt>
      <trkpt lat="43.16228" lon="1.18131">
        <ele>368</ele>
        <time>2019-05-19T16:00:42Z</time>
      </trkpt>
      <trkpt lat="43.16212" lon="1.18132">
        <ele>367</ele>
        <time>2019-05-19T16:00:50Z</time>
      </trkpt>
      <trkpt lat="43.16202" lon="1.18136">
        <ele>367</ele>
        <time>2019-05-19T16:00:55Z</time>
      </trkpt>
      <trkpt lat="43.16189" lon="1.18153">
        <ele>366</ele>
        <time>2019-05-19T16:01:04Z</time>
      </trkpt>
      <trkpt lat="43.16172" lon="1.18168">
        <ele>365</ele>
        <time>2019-05-19T16:01:15Z</time>
      </trkpt>
      <trkpt lat="43.16108" lon="1.18189">
        <ele>364</ele>
        <time>2019-05-19T16:01:47Z</time>
      </trkpt>
      <trkpt lat="43.16083" lon="1.18212">
        <ele>365</ele>
        <time>2019-05-19T16:02:03Z</time>
      </trkpt>
      <trkpt lat="43.16064" lon="1.18224">
        <ele>366</ele>
        <time>2019-05-19T16:02:13Z</time>
      </trkpt>
      <trkpt lat="43.16047" lon="1.1824">
        <ele>367</ele>
        <time>2019-05-19T16:02:23Z</time>
      </trkpt>
      <trkpt lat="43.1603" lon="1.18265">
        <ele>369</ele>
        <time>2019-05-19T16:02:36Z</time>
      </trkpt>
      <trkpt lat="43.16021" lon="1.18283">
        <ele>371</ele>
        <time>2019-05-19T16:02:44Z</time>
      </trkpt>
      <trkpt lat="43.1603" lon="1.18296">
        <ele>373</ele>
        <time>2019-05-19T16:02:50Z</time>
      </trkpt>
      <trkpt lat="43.16046" lon="1.18307">
        <ele>375</ele>
        <time>2019-05-19T16:02:59Z</time>
      </trkpt>
      <trkpt lat="43.16055" lon="1.18319">
        <ele>378</ele>
        <time>2019-05-19T16:03:06Z</time>
      </trkpt>
      <trkpt lat="43.16063" lon="1.1832">
        <ele>378</ele>
        <time>2019-05-19T16:03:10Z</time>
      </trkpt>
      <trkpt lat="43.16084" lon="1.18315">
        <ele>379</ele>
        <time>2019-05-19T16:03:20Z</time>
      </trkpt>
      <trkpt lat="43.16108" lon="1.18321">
        <ele>382</ele>
        <time>2019-05-19T16:03:32Z</time>
      </trkpt>
      <trkpt lat="43.1613" lon="1.18317">
        <ele>384</ele>
        <time>2019-05-19T16:03:44Z</time>
      </trkpt>
      <trkpt lat="43.16144" lon="1.1832">
        <ele>386</ele>
        <time>2019-05-19T16:03:51Z</time>
      </trkpt>
      <trkpt lat="43.16159" lon="1.18318">
        <ele>387</ele>
        <time>2019-05-19T16:03:58Z</time>
      </trkpt>
      <trkpt lat="43.16169" lon="1.1832">
        <ele>389</ele>
        <time>2019-05-19T16:04:03Z</time>
      </trkpt>
      <trkpt lat="43.16194" lon="1.18319">
        <ele>391</ele>
        <time>2019-05-19T16:04:16Z</time>
      </trkpt>
      <trkpt lat="43.16204" lon="1.18322">
        <ele>393</ele>
        <time>2019-05-19T16:04:21Z</time>
      </trkpt>
      <trkpt lat="43.16255" lon="1.18323">
        <ele>397</ele>
        <time>2019-05-19T16:04:46Z</time>
      </trkpt>
      <trkpt lat="43.16277" lon="1.1833">
        <ele>399</ele>
        <time>2019-05-19T16:04:58Z</time>
      </trkpt>
      <trkpt lat="43.16283" lon="1.18341">
        <ele>400</ele>
        <time>2019-05-19T16:05:03Z</time>
      </trkpt>
      <trkpt lat="43.16285" lon="1.18351">
        <ele>401</ele>
        <time>2019-05-19T16:05:06Z</time>
      </trkpt>
      <trkpt lat="43.16292" lon="1.18347">
        <ele>400</ele>
        <time>2019-05-19T16:05:10Z</time>
      </trkpt>
      <trkpt lat="43.16319" lon="1.1832">
        <ele>400</ele>
        <time>2019-05-19T16:05:27Z</time>
      </trkpt>
      <trkpt lat="43.16323" lon="1.18313">
        <ele>399</ele>
        <time>2019-05-19T16:05:30Z</time>
      </trkpt>
      <trkpt lat="43.16343" lon="1.18295">
        <ele>398</ele>
        <time>2019-05-19T16:05:42Z</time>
      </trkpt>
      <trkpt lat="43.16373" lon="1.18262">
        <ele>394</ele>
        <time>2019-05-19T16:06:01Z</time>
      </trkpt>
      <trkpt lat="43.16409" lon="1.1823">
        <ele>390</ele>
        <time>2019-05-19T16:06:23Z</time>
      </trkpt>
      <trkpt lat="43.16439" lon="1.18206">
        <ele>386</ele>
        <time>2019-05-19T16:06:40Z</time>
      </trkpt>
      <trkpt lat="43.16484" lon="1.18176">
        <ele>386</ele>
        <time>2019-05-19T16:07:05Z</time>
      </trkpt>
      <trkpt lat="43.16562" lon="1.18136">
        <ele>390</ele>
        <time>2019-05-19T16:07:47Z</time>
      </trkpt>
      <trkpt lat="43.16623" lon="1.18109">
        <ele>394</ele>
        <time>2019-05-19T16:08:19Z</time>
      </trkpt>
      <trkpt lat="43.16638" lon="1.18104">
        <ele>395</ele>
        <time>2019-05-19T16:08:27Z</time>
      </trkpt>
      <trkpt lat="43.16657" lon="1.18104">
        <ele>397</ele>
        <time>2019-05-19T16:08:36Z</time>
      </trkpt>
      <trkpt lat="43.16674" lon="1.18107">
        <ele>397</ele>
        <time>2019-05-19T16:08:45Z</time>
      </trkpt>
      <trkpt lat="43.16704" lon="1.18118">
        <ele>395</ele>
        <time>2019-05-19T16:09:00Z</time>
      </trkpt>
      <trkpt lat="43.1678" lon="1.18128">
        <ele>386</ele>
        <time>2019-05-19T16:09:39Z</time>
      </trkpt>
      <trkpt lat="43.16816" lon="1.18121">
        <ele>383</ele>
        <time>2019-05-19T16:09:57Z</time>
      </trkpt>
      <trkpt lat="43.16854" lon="1.18123">
        <ele>379</ele>
        <time>2019-05-19T16:10:16Z</time>
      </trkpt>
      <trkpt lat="43.16876" lon="1.1812">
        <ele>378</ele>
        <time>2019-05-19T16:10:27Z</time>
      </trkpt>
      <trkpt lat="43.16935" lon="1.18125">
        <ele>375</ele>
        <time>2019-05-19T16:10:57Z</time>
      </trkpt>
      <trkpt lat="43.17" lon="1.18138">
        <ele>377</ele>
        <time>2019-05-19T16:11:29Z</time>
      </trkpt>
      <trkpt lat="43.17024" lon="1.18147">
        <ele>374</ele>
        <time>2019-05-19T16:11:42Z</time>
      </trkpt>
      <trkpt lat="43.17045" lon="1.1816">
        <ele>372</ele>
        <time>2019-05-19T16:11:53Z</time>
      </trkpt>
      <trkpt lat="43.1707" lon="1.18186">
        <ele>368</ele>
        <time>2019-05-19T16:12:09Z</time>
      </trkpt>
      <trkpt lat="43.17109" lon="1.18214">
        <ele>362</ele>
        <time>2019-05-19T16:12:31Z</time>
      </trkpt>
      <trkpt lat="43.17153" lon="1.1825">
        <ele>361</ele>
        <time>2019-05-19T16:12:57Z</time>
      </trkpt>
      <trkpt lat="43.1718" lon="1.18261">
        <ele>359</ele>
        <time>2019-05-19T16:13:11Z</time>
      </trkpt>
      <trkpt lat="43.17194" lon="1.18264">
        <ele>359</ele>
        <time>2019-05-19T16:13:18Z</time>
      </trkpt>
      <trkpt lat="43.17228" lon="1.18266">
        <ele>358</ele>
        <time>2019-05-19T16:13:35Z</time>
      </trkpt>
      <trkpt lat="43.17263" lon="1.18274">
        <ele>357</ele>
        <time>2019-05-19T16:13:53Z</time>
      </trkpt>
      <trkpt lat="43.17301" lon="1.18269">
        <ele>357</ele>
        <time>2019-05-19T16:14:12Z</time>
      </trkpt>
      <trkpt lat="43.1733" lon="1.18261">
        <ele>357</ele>
        <time>2019-05-19T16:14:27Z</time>
      </trkpt>
      <trkpt lat="43.1738" lon="1.18233">
        <ele>354</ele>
        <time>2019-05-19T16:14:54Z</time>
      </trkpt>
      <trkpt lat="43.17437" lon="1.1818">
        <ele>349</ele>
        <time>2019-05-19T16:15:28Z</time>
      </trkpt>
      <trkpt lat="43.17472" lon="1.18169">
        <ele>349</ele>
        <time>2019-05-19T16:15:46Z</time>
      </trkpt>
      <trkpt lat="43.17486" lon="1.18171">
        <ele>349</ele>
        <time>2019-05-19T16:15:53Z</time>
      </trkpt>
      <trkpt lat="43.17517" lon="1.18194">
        <ele>349</ele>
        <time>2019-05-19T16:16:11Z</time>
      </trkpt>
      <trkpt lat="43.17548" lon="1.18226">
        <ele>350</ele>
        <time>2019-05-19T16:16:30Z</time>
      </trkpt>
      <trkpt lat="43.17622" lon="1.18283">
        <ele>349</ele>
        <time>2019-05-19T16:17:13Z</time>
      </trkpt>
      <trkpt lat="43.17656" lon="1.18289">
        <ele>349</ele>
        <time>2019-05-19T16:17:30Z</time>
      </trkpt>
      <trkpt lat="43.17685" lon="1.18282">
        <ele>349</ele>
        <time>2019-05-19T16:17:45Z</time>
      </trkpt>
      <trkpt lat="43.17702" lon="1.18282">
        <ele>348</ele>
        <time>2019-05-19T16:17:53Z</time>
      </trkpt>
      <trkpt lat="43.17714" lon="1.18285">
        <ele>347</ele>
        <time>2019-05-19T16:17:59Z</time>
      </trkpt>
      <trkpt lat="43.17744" lon="1.18298">
        <ele>346</ele>
        <time>2019-05-19T16:18:15Z</time>
      </trkpt>
      <trkpt lat="43.17791" lon="1.18333">
        <ele>346</ele>
        <time>2019-05-19T16:18:42Z</time>
      </trkpt>
      <trkpt lat="43.17828" lon="1.1834">
        <ele>345</ele>
        <time>2019-05-19T16:19:00Z</time>
      </trkpt>
      <trkpt lat="43.1785" lon="1.18338">
        <ele>345</ele>
        <time>2019-05-19T16:19:11Z</time>
      </trkpt>
      <trkpt lat="43.17866" lon="1.18333">
        <ele>345</ele>
        <time>2019-05-19T16:19:20Z</time>
      </trkpt>
      <trkpt lat="43.17874" lon="1.18328">
        <ele>344</ele>
        <time>2019-05-19T16:19:24Z</time>
      </trkpt>
      <trkpt lat="43.1791" lon="1.18317">
        <ele>342</ele>
        <time>2019-05-19T16:19:42Z</time>
      </trkpt>
      <trkpt lat="43.17926" lon="1.18317">
        <ele>341</ele>
        <time>2019-05-19T16:19:51Z</time>
      </trkpt>
      <trkpt lat="43.17944" lon="1.18321">
        <ele>341</ele>
        <time>2019-05-19T16:20:00Z</time>
      </trkpt>
      <trkpt lat="43.17965" lon="1.18342">
        <ele>342</ele>
        <time>2019-05-19T16:20:13Z</time>
      </trkpt>
      <trkpt lat="43.18001" lon="1.1837">
        <ele>340</ele>
        <time>2019-05-19T16:20:33Z</time>
      </trkpt>
      <trkpt lat="43.18029" lon="1.1839">
        <ele>340</ele>
        <time>2019-05-19T16:20:49Z</time>
      </trkpt>
      <trkpt lat="43.18089" lon="1.18425">
        <ele>341</ele>
        <time>2019-05-19T16:21:22Z</time>
      </trkpt>
      <trkpt lat="43.18104" lon="1.18444">
        <ele>339</ele>
        <time>2019-05-19T16:21:32Z</time>
      </trkpt>
      <trkpt lat="43.18116" lon="1.18466">
        <ele>337</ele>
        <time>2019-05-19T16:21:42Z</time>
      </trkpt>
      <trkpt lat="43.18113" lon="1.18483">
        <ele>335</ele>
        <time>2019-05-19T16:21:48Z</time>
      </trkpt>
      <trkpt lat="43.18102" lon="1.18511">
        <ele>333</ele>
        <time>2019-05-19T16:22:00Z</time>
      </trkpt>
      <trkpt lat="43.18095" lon="1.18537">
        <ele>331</ele>
        <time>2019-05-19T16:22:10Z</time>
      </trkpt>
      <trkpt lat="43.1809" lon="1.18543">
        <ele>330</ele>
        <time>2019-05-19T16:22:13Z</time>
      </trkpt>
      <trkpt lat="43.1808" lon="1.18572">
        <ele>328</ele>
        <time>2019-05-19T16:22:25Z</time>
      </trkpt>
      <trkpt lat="43.18078" lon="1.18584">
        <ele>327</ele>
        <time>2019-05-19T16:22:30Z</time>
      </trkpt>
      <trkpt lat="43.18053" lon="1.18658">
        <ele>320</ele>
        <time>2019-05-19T16:22:59Z</time>
      </trkpt>
      <trkpt lat="43.18049" lon="1.18664">
        <ele>319</ele>
        <time>2019-05-19T16:23:02Z</time>
      </trkpt>
      <trkpt lat="43.18044" lon="1.18664">
        <ele>319</ele>
        <time>2019-05-19T16:23:05Z</time>
      </trkpt>
      <trkpt lat="43.18029" lon="1.18657">
        <ele>320</ele>
        <time>2019-05-19T16:23:13Z</time>
      </trkpt>
      <trkpt lat="43.18006" lon="1.18661">
        <ele>319</ele>
        <time>2019-05-19T16:23:24Z</time>
      </trkpt>
      <trkpt lat="43.17981" lon="1.18662">
        <ele>320</ele>
        <time>2019-05-19T16:23:37Z</time>
      </trkpt>
      <trkpt lat="43.1794" lon="1.18696">
        <ele>316</ele>
        <time>2019-05-19T16:24:01Z</time>
      </trkpt>
      <trkpt lat="43.1792" lon="1.18702">
        <ele>315</ele>
        <time>2019-05-19T16:24:11Z</time>
      </trkpt>
      <trkpt lat="43.17904" lon="1.18704">
        <ele>314</ele>
        <time>2019-05-19T16:24:19Z</time>
      </trkpt>
      <trkpt lat="43.17893" lon="1.18717">
        <ele>312</ele>
        <time>2019-05-19T16:24:26Z</time>
      </trkpt>
      <trkpt lat="43.17882" lon="1.18724">
        <ele>311</ele>
        <time>2019-05-19T16:24:33Z</time>
      </trkpt>
      <trkpt lat="43.17841" lon="1.18717">
        <ele>311</ele>
        <time>2019-05-19T16:24:53Z</time>
      </trkpt>
      <trkpt lat="43.17828" lon="1.18717">
        <ele>311</ele>
        <time>2019-05-19T16:25:00Z</time>
      </trkpt>
      <trkpt lat="43.17827" lon="1.18714">
        <ele>312</ele>
        <time>2019-05-19T16:25:01Z</time>
      </trkpt>
      <trkpt lat="43.17825" lon="1.1872">
        <ele>311</ele>
        <time>2019-05-19T16:25:03Z</time>
      </trkpt>
      <trkpt lat="43.17817" lon="1.18729">
        <ele>311</ele>
        <time>2019-05-19T16:25:08Z</time>
      </trkpt>
      <trkpt lat="43.17811" lon="1.1873">
        <ele>311</ele>
        <time>2019-05-19T16:25:12Z</time>
      </trkpt>
      <trkpt lat="43.17799" lon="1.18726">
        <ele>312</ele>
        <time>2019-05-19T16:25:18Z</time>
      </trkpt>
      <trkpt lat="43.17784" lon="1.18725">
        <ele>312</ele>
        <time>2019-05-19T16:25:25Z</time>
      </trkpt>
      <trkpt lat="43.17782" lon="1.18727">
        <ele>312</ele>
        <time>2019-05-19T16:25:26Z</time>
      </trkpt>
      <trkpt lat="43.17769" lon="1.18726">
        <ele>313</ele>
        <time>2019-05-19T16:25:33Z</time>
      </trkpt>
      <trkpt lat="43.17741" lon="1.1873">
        <ele>316</ele>
        <time>2019-05-19T16:25:47Z</time>
      </trkpt>
      <trkpt lat="43.17728" lon="1.18729">
        <ele>318</ele>
        <time>2019-05-19T16:25:54Z</time>
      </trkpt>
      <trkpt lat="43.17712" lon="1.18734">
        <ele>322</ele>
        <time>2019-05-19T16:26:02Z</time>
      </trkpt>
      <trkpt lat="43.17695" lon="1.18745">
        <ele>327</ele>
        <time>2019-05-19T16:26:11Z</time>
      </trkpt>
      <trkpt lat="43.17665" lon="1.18773">
        <ele>334</ele>
        <time>2019-05-19T16:26:29Z</time>
      </trkpt>
      <trkpt lat="43.17658" lon="1.18777">
        <ele>334</ele>
        <time>2019-05-19T16:26:33Z</time>
      </trkpt>
      <trkpt lat="43.17647" lon="1.18779">
        <ele>336</ele>
        <time>2019-05-19T16:26:39Z</time>
      </trkpt>
      <trkpt lat="43.1762" lon="1.188">
        <ele>338</ele>
        <time>2019-05-19T16:26:54Z</time>
      </trkpt>
      <trkpt lat="43.17593" lon="1.18811">
        <ele>341</ele>
        <time>2019-05-19T16:27:08Z</time>
      </trkpt>
      <trkpt lat="43.17584" lon="1.18812">
        <ele>342</ele>
        <time>2019-05-19T16:27:13Z</time>
      </trkpt>
      <trkpt lat="43.17571" lon="1.18803">
        <ele>344</ele>
        <time>2019-05-19T16:27:20Z</time>
      </trkpt>
      <trkpt lat="43.17558" lon="1.18807">
        <ele>346</ele>
        <time>2019-05-19T16:27:27Z</time>
      </trkpt>
      <trkpt lat="43.17544" lon="1.18804">
        <ele>348</ele>
        <time>2019-05-19T16:27:34Z</time>
      </trkpt>
      <trkpt lat="43.17513" lon="1.18783">
        <ele>351</ele>
        <time>2019-05-19T16:27:51Z</time>
      </trkpt>
      <trkpt lat="43.1749" lon="1.1876">
        <ele>353</ele>
        <time>2019-05-19T16:28:05Z</time>
      </trkpt>
      <trkpt lat="43.17486" lon="1.18764">
        <ele>353</ele>
        <time>2019-05-19T16:28:08Z</time>
      </trkpt>
      <trkpt lat="43.17483" lon="1.18775">
        <ele>353</ele>
        <time>2019-05-19T16:28:12Z</time>
      </trkpt>
      <trkpt lat="43.17492" lon="1.18807">
        <ele>354</ele>
        <time>2019-05-19T16:28:25Z</time>
      </trkpt>
      <trkpt lat="43.17485" lon="1.18835">
        <ele>355</ele>
        <time>2019-05-19T16:28:36Z</time>
      </trkpt>
      <trkpt lat="43.17481" lon="1.18839">
        <ele>355</ele>
        <time>2019-05-19T16:28:38Z</time>
      </trkpt>
      <trkpt lat="43.17476" lon="1.18841">
        <ele>355</ele>
        <time>2019-05-19T16:28:41Z</time>
      </trkpt>
      <trkpt lat="43.17458" lon="1.18839">
        <ele>356</ele>
        <time>2019-05-19T16:28:50Z</time>
      </trkpt>
      <trkpt lat="43.17429" lon="1.18846">
        <ele>358</ele>
        <time>2019-05-19T16:29:04Z</time>
      </trkpt>
      <trkpt lat="43.17379" lon="1.18874">
        <ele>361</ele>
        <time>2019-05-19T16:29:31Z</time>
      </trkpt>
      <trkpt lat="43.17336" lon="1.18889">
        <ele>364</ele>
        <time>2019-05-19T16:29:54Z</time>
      </trkpt>
      <trkpt lat="43.17293" lon="1.18909">
        <ele>373</ele>
        <time>2019-05-19T16:30:16Z</time>
      </trkpt>
      <trkpt lat="43.17282" lon="1.1893">
        <ele>376</ele>
        <time>2019-05-19T16:30:26Z</time>
      </trkpt>
      <trkpt lat="43.17275" lon="1.18956">
        <ele>379</ele>
        <time>2019-05-19T16:30:36Z</time>
      </trkpt>
      <trkpt lat="43.17258" lon="1.18997">
        <ele>386</ele>
        <time>2019-05-19T16:30:53Z</time>
      </trkpt>
      <trkpt lat="43.1725" lon="1.19028">
        <ele>388</ele>
        <time>2019-05-19T16:31:05Z</time>
      </trkpt>
      <trkpt lat="43.17249" lon="1.19044">
        <ele>388</ele>
        <time>2019-05-19T16:31:11Z</time>
      </trkpt>
      <trkpt lat="43.17253" lon="1.19072">
        <ele>387</ele>
        <time>2019-05-19T16:31:21Z</time>
      </trkpt>
      <trkpt lat="43.17267" lon="1.19105">
        <ele>385</ele>
        <time>2019-05-19T16:31:35Z</time>
      </trkpt>
      <trkpt lat="43.17291" lon="1.19151">
        <ele>384</ele>
        <time>2019-05-19T16:31:56Z</time>
      </trkpt>
      <trkpt lat="43.17302" lon="1.19165">
        <ele>383</ele>
        <time>2019-05-19T16:32:03Z</time>
      </trkpt>
      <trkpt lat="43.17315" lon="1.19174">
        <ele>382</ele>
        <time>2019-05-19T16:32:11Z</time>
      </trkpt>
      <trkpt lat="43.17327" lon="1.1919">
        <ele>382</ele>
        <time>2019-05-19T16:32:19Z</time>
      </trkpt>
      <trkpt lat="43.17332" lon="1.1921">
        <ele>384</ele>
        <time>2019-05-19T16:32:27Z</time>
      </trkpt>
      <trkpt lat="43.17349" lon="1.19247">
        <ele>388</ele>
        <time>2019-05-19T16:32:43Z</time>
      </trkpt>
      <trkpt lat="43.17368" lon="1.19265">
        <ele>390</ele>
        <time>2019-05-19T16:32:54Z</time>
      </trkpt>
      <trkpt lat="43.17426" lon="1.19311">
        <ele>393</ele>
        <time>2019-05-19T16:33:28Z</time>
      </trkpt>
      <trkpt lat="43.17434" lon="1.19326">
        <ele>395</ele>
        <time>2019-05-19T16:33:35Z</time>
      </trkpt>
      <trkpt lat="43.17443" lon="1.19357">
        <ele>396</ele>
        <time>2019-05-19T16:33:47Z</time>
      </trkpt>
      <trkpt lat="43.17448" lon="1.19366">
        <ele>395</ele>
        <time>2019-05-19T16:33:51Z</time>
      </trkpt>
      <trkpt lat="43.17476" lon="1.19354">
        <ele>394</ele>
        <time>2019-05-19T16:34:06Z</time>
      </trkpt>
      <trkpt lat="43.17496" lon="1.1935">
        <ele>394</ele>
        <time>2019-05-19T16:34:16Z</time>
      </trkpt>
      <trkpt lat="43.1758" lon="1.19321">
        <ele>392</ele>
        <time>2019-05-19T16:34:59Z</time>
      </trkpt>
      <trkpt lat="43.17619" lon="1.19315">
        <ele>391</ele>
        <time>2019-05-19T16:35:19Z</time>
      </trkpt>
      <trkpt lat="43.17702" lon="1.19287">
        <ele>386</ele>
        <time>2019-05-19T16:36:02Z</time>
      </trkpt>
      <trkpt lat="43.17728" lon="1.19281">
        <ele>384</ele>
        <time>2019-05-19T16:36:15Z</time>
      </trkpt>
      <trkpt lat="43.17771" lon="1.19265">
        <ele>381</ele>
        <time>2019-05-19T16:36:37Z</time>
      </trkpt>
      <trkpt lat="43.17782" lon="1.1926">
        <ele>380</ele>
        <time>2019-05-19T16:36:43Z</time>
      </trkpt>
      <trkpt lat="43.17792" lon="1.19252">
        <ele>379</ele>
        <time>2019-05-19T16:36:49Z</time>
      </trkpt>
      <trkpt lat="43.17816" lon="1.19217">
        <ele>375</ele>
        <time>2019-05-19T16:37:06Z</time>
      </trkpt>
      <trkpt lat="43.17833" lon="1.19208">
        <ele>373</ele>
        <time>2019-05-19T16:37:15Z</time>
      </trkpt>
      <trkpt lat="43.17841" lon="1.19212">
        <ele>373</ele>
        <time>2019-05-19T16:37:20Z</time>
      </trkpt>
      <trkpt lat="43.1785" lon="1.19224">
        <ele>373</ele>
        <time>2019-05-19T16:37:26Z</time>
      </trkpt>
      <trkpt lat="43.17864" lon="1.19255">
        <ele>372</ele>
        <time>2019-05-19T16:37:39Z</time>
      </trkpt>
      <trkpt lat="43.17868" lon="1.19268">
        <ele>372</ele>
        <time>2019-05-19T16:37:44Z</time>
      </trkpt>
      <trkpt lat="43.17871" lon="1.19295">
        <ele>370</ele>
        <time>2019-05-19T16:37:54Z</time>
      </trkpt>
      <trkpt lat="43.1788" lon="1.19324">
        <ele>369</ele>
        <time>2019-05-19T16:38:06Z</time>
      </trkpt>
      <trkpt lat="43.17935" lon="1.1943">
        <ele>361</ele>
        <time>2019-05-19T16:38:53Z</time>
      </trkpt>
      <trkpt lat="43.17947" lon="1.19441">
        <ele>360</ele>
        <time>2019-05-19T16:39:00Z</time>
      </trkpt>
      <trkpt lat="43.17953" lon="1.19441">
        <ele>360</ele>
        <time>2019-05-19T16:39:03Z</time>
      </trkpt>
      <trkpt lat="43.1796" lon="1.19437">
        <ele>359</ele>
        <time>2019-05-19T16:39:07Z</time>
      </trkpt>
      <trkpt lat="43.17988" lon="1.19392">
        <ele>357</ele>
        <time>2019-05-19T16:39:29Z</time>
      </trkpt>
      <trkpt lat="43.18" lon="1.19368">
        <ele>357</ele>
        <time>2019-05-19T16:39:39Z</time>
      </trkpt>
      <trkpt lat="43.18022" lon="1.19355">
        <ele>353</ele>
        <time>2019-05-19T16:39:51Z</time>
      </trkpt>
      <trkpt lat="43.18028" lon="1.19356">
        <ele>352</ele>
        <time>2019-05-19T16:39:54Z</time>
      </trkpt>
      <trkpt lat="43.18039" lon="1.19353">
        <ele>351</ele>
        <time>2019-05-19T16:40:00Z</time>
      </trkpt>
      <trkpt lat="43.18073" lon="1.19353">
        <ele>346</ele>
        <time>2019-05-19T16:40:17Z</time>
      </trkpt>
      <trkpt lat="43.18105" lon="1.1936">
        <ele>341</ele>
        <time>2019-05-19T16:40:33Z</time>
      </trkpt>
      <trkpt lat="43.18156" lon="1.19381">
        <ele>335</ele>
        <time>2019-05-19T16:41:00Z</time>
      </trkpt>
      <trkpt lat="43.18181" lon="1.19395">
        <ele>333</ele>
        <time>2019-05-19T16:41:13Z</time>
      </trkpt>
      <trkpt lat="43.18191" lon="1.19406">
        <ele>332</ele>
        <time>2019-05-19T16:41:20Z</time>
      </trkpt>
      <trkpt lat="43.18196" lon="1.19418">
        <ele>332</ele>
        <time>2019-05-19T16:41:25Z</time>
      </trkpt>
      <trkpt lat="43.18198" lon="1.19443">
        <ele>331</ele>
        <time>2019-05-19T16:41:34Z</time>
      </trkpt>
      <trkpt lat="43.18196" lon="1.19476">
        <ele>331</ele>
        <time>2019-05-19T16:41:46Z</time>
      </trkpt>
      <trkpt lat="43.182" lon="1.19484">
        <ele>330</ele>
        <time>2019-05-19T16:41:50Z</time>
      </trkpt>
      <trkpt lat="43.18209" lon="1.1949">
        <ele>329</ele>
        <time>2019-05-19T16:41:55Z</time>
      </trkpt>
      <trkpt lat="43.18214" lon="1.1949">
        <ele>329</ele>
        <time>2019-05-19T16:41:57Z</time>
      </trkpt>
      <trkpt lat="43.18241" lon="1.19477">
        <ele>326</ele>
        <time>2019-05-19T16:42:12Z</time>
      </trkpt>
      <trkpt lat="43.18273" lon="1.19457">
        <ele>322</ele>
        <time>2019-05-19T16:42:29Z</time>
      </trkpt>
      <trkpt lat="43.18294" lon="1.1944">
        <ele>318</ele>
        <time>2019-05-19T16:42:41Z</time>
      </trkpt>
      <trkpt lat="43.18316" lon="1.19427">
        <ele>315</ele>
        <time>2019-05-19T16:42:53Z</time>
      </trkpt>
      <trkpt lat="43.18328" lon="1.19423">
        <ele>313</ele>
        <time>2019-05-19T16:42:59Z</time>
      </trkpt>
      <trkpt lat="43.18348" lon="1.19418">
        <ele>311</ele>
        <time>2019-05-19T16:43:10Z</time>
      </trkpt>
      <trkpt lat="43.18367" lon="1.19417">
        <ele>310</ele>
        <time>2019-05-19T16:43:19Z</time>
      </trkpt>
      <trkpt lat="43.18398" lon="1.19411">
        <ele>307</ele>
        <time>2019-05-19T16:43:35Z</time>
      </trkpt>
      <trkpt lat="43.18431" lon="1.19419">
        <ele>305</ele>
        <time>2019-05-19T16:43:52Z</time>
      </trkpt>
      <trkpt lat="43.18457" lon="1.19417">
        <ele>302</ele>
        <time>2019-05-19T16:44:05Z</time>
      </trkpt>
      <trkpt lat="43.18476" lon="1.1941">
        <ele>300</ele>
        <time>2019-05-19T16:44:14Z</time>
      </trkpt>
      <trkpt lat="43.18494" lon="1.19401">
        <ele>297</ele>
        <time>2019-05-19T16:44:24Z</time>
      </trkpt>
      <trkpt lat="43.18504" lon="1.1939">
        <ele>295</ele>
        <time>2019-05-19T16:44:30Z</time>
      </trkpt>
      <trkpt lat="43.18514" lon="1.19373">
        <ele>293</ele>
        <time>2019-05-19T16:44:38Z</time>
      </trkpt>
      <trkpt lat="43.18519" lon="1.19358">
        <ele>291</ele>
        <time>2019-05-19T16:44:44Z</time>
      </trkpt>
      <trkpt lat="43.18517" lon="1.19347">
        <ele>290</ele>
        <time>2019-05-19T16:44:49Z</time>
      </trkpt>
      <trkpt lat="43.18511" lon="1.19341">
        <ele>291</ele>
        <time>2019-05-19T16:44:52Z</time>
      </trkpt>
      <trkpt lat="43.185" lon="1.19337">
        <ele>291</ele>
        <time>2019-05-19T16:44:58Z</time>
      </trkpt>
      <trkpt lat="43.18488" lon="1.19327">
        <ele>292</ele>
        <time>2019-05-19T16:45:05Z</time>
      </trkpt>
      <trkpt lat="43.18488" lon="1.19316">
        <ele>291</ele>
        <time>2019-05-19T16:45:09Z</time>
      </trkpt>
      <trkpt lat="43.18493" lon="1.19306">
        <ele>289</ele>
        <time>2019-05-19T16:45:13Z</time>
      </trkpt>
      <trkpt lat="43.18503" lon="1.19297">
        <ele>288</ele>
        <time>2019-05-19T16:45:19Z</time>
      </trkpt>
      <trkpt lat="43.18528" lon="1.19294">
        <ele>286</ele>
        <time>2019-05-19T16:45:32Z</time>
      </trkpt>
      <trkpt lat="43.18535" lon="1.1929">
        <ele>285</ele>
        <time>2019-05-19T16:45:36Z</time>
      </trkpt>
      <trkpt lat="43.18549" lon="1.1927">
        <ele>283</ele>
        <time>2019-05-19T16:45:46Z</time>
      </trkpt>
      <trkpt lat="43.18558" lon="1.19228">
        <ele>282</ele>
        <time>2019-05-19T16:46:02Z</time>
      </trkpt>
      <trkpt lat="43.18558" lon="1.19189">
        <ele>283</ele>
        <time>2019-05-19T16:46:16Z</time>
      </trkpt>
      <trkpt lat="43.18554" lon="1.19165">
        <ele>284</ele>
        <time>2019-05-19T16:46:25Z</time>
      </trkpt>
      <trkpt lat="43.18542" lon="1.19144">
        <ele>284</ele>
        <time>2019-05-19T16:46:35Z</time>
      </trkpt>
      <trkpt lat="43.18521" lon="1.19121">
        <ele>285</ele>
        <time>2019-05-19T16:46:48Z</time>
      </trkpt>
      <trkpt lat="43.18486" lon="1.19094">
        <ele>287</ele>
        <time>2019-05-19T16:47:08Z</time>
      </trkpt>
      <trkpt lat="43.18471" lon="1.19075">
        <ele>288</ele>
        <time>2019-05-19T16:47:19Z</time>
      </trkpt>
      <trkpt lat="43.18464" lon="1.18967">
        <ele>295</ele>
        <time>2019-05-19T16:47:58Z</time>
      </trkpt>
      <trkpt lat="43.18467" lon="1.18933">
        <ele>299</ele>
        <time>2019-05-19T16:48:11Z</time>
      </trkpt>
      <trkpt lat="43.18483" lon="1.18893">
        <ele>302</ele>
        <time>2019-05-19T16:48:27Z</time>
      </trkpt>
      <trkpt lat="43.18502" lon="1.18866">
        <ele>303</ele>
        <time>2019-05-19T16:48:41Z</time>
      </trkpt>
      <trkpt lat="43.18539" lon="1.18832">
        <ele>303</ele>
        <time>2019-05-19T16:49:03Z</time>
      </trkpt>
      <trkpt lat="43.18549" lon="1.18828">
        <ele>303</ele>
        <time>2019-05-19T16:49:09Z</time>
      </trkpt>
      <trkpt lat="43.1857" lon="1.18811">
        <ele>302</ele>
        <time>2019-05-19T16:49:21Z</time>
      </trkpt>
      <trkpt lat="43.18595" lon="1.18798">
        <ele>300</ele>
        <time>2019-05-19T16:49:34Z</time>
      </trkpt>
    </trkseg>
  </trk>
</gpx>